createdAt,value
2018-04-27T00:01:12.784Z,12.17
2018-04-27T00:03:40.492Z,11.60
2018-04-27T00:06:08.344Z,11.70
2018-04-27T00:08:35.993Z,12.43
2018-04-27T00:11:03.635Z,12.10
2018-04-27T00:13:31.518Z,12.70
2018-04-27T00:15:59.231Z,13.17
2018-04-27T00:18:26.880Z,12.30
2018-04-27T00:20:57.411Z,11.43
2018-04-27T00:23:25.063Z,11.57
2018-04-27T00:25:52.703Z,11.67
2018-04-27T00:28:20.967Z,12.00
2018-04-27T00:30:48.610Z,11.13
2018-04-27T00:33:16.287Z,12.40
2018-04-27T00:35:43.997Z,11.77
2018-04-27T00:38:11.712Z,11.93
2018-04-27T00:40:39.349Z,12.33
2018-04-27T00:43:07.028Z,11.60
2018-04-27T00:45:34.748Z,11.60
2018-04-27T00:48:02.448Z,12.63
2018-04-27T00:50:30.258Z,12.80
2018-04-27T00:53:09.635Z,12.90
2018-04-27T00:55:37.484Z,12.80
2018-04-27T00:58:05.131Z,12.70
2018-04-27T01:00:32.775Z,13.40
2018-04-27T01:03:00.584Z,13.10
2018-04-27T01:05:28.328Z,12.97
2018-04-27T01:07:55.984Z,14.17
2018-04-27T01:10:23.754Z,13.23
2018-04-27T01:12:51.484Z,12.20
2018-04-27T01:15:19.193Z,12.27
2018-04-27T01:17:46.964Z,12.70
2018-04-27T01:20:14.650Z,13.10
2018-04-27T01:22:42.363Z,12.73
2018-04-27T01:25:10.151Z,12.37
2018-04-27T01:27:37.787Z,12.00
2018-04-27T01:30:05.591Z,12.30
2018-04-27T01:32:34.256Z,12.90
2018-04-27T01:35:01.968Z,12.77
2018-04-27T01:37:29.668Z,12.53
2018-04-27T01:39:57.344Z,12.47
2018-04-27T01:42:24.992Z,12.43
2018-04-27T01:44:52.635Z,12.67
2018-04-27T01:47:20.445Z,12.70
2018-04-27T01:49:48.080Z,13.33
2018-04-27T01:52:15.741Z,12.73
2018-04-27T01:54:43.479Z,14.63
2018-04-27T01:57:11.111Z,12.83
2018-04-27T01:59:38.786Z,14.73
2018-04-27T02:02:06.497Z,12.63
2018-04-27T02:04:34.139Z,12.90
2018-04-27T02:07:01.802Z,12.57
2018-04-27T02:09:29.593Z,13.37
2018-04-27T02:11:57.180Z,25.17
2018-04-27T02:14:24.840Z,43.40
2018-04-27T02:16:52.472Z,13.60
2018-04-27T02:19:20.052Z,14.20
2018-04-27T02:21:47.642Z,13.07
2018-04-27T02:24:15.336Z,17.67
2018-04-27T02:26:42.996Z,13.23
2018-04-27T02:29:10.643Z,13.23
2018-04-27T02:31:38.505Z,12.97
2018-04-27T02:34:06.177Z,13.13
2018-04-27T02:36:33.759Z,13.77
2018-04-27T02:39:01.395Z,12.97
2018-04-27T02:41:28.980Z,12.40
2018-04-27T02:43:56.635Z,13.10
2018-04-27T02:46:24.273Z,13.97
2018-04-27T02:48:51.924Z,16.50
2018-04-27T02:51:19.531Z,14.77
2018-04-27T02:53:47.197Z,14.60
2018-04-27T02:56:14.794Z,14.70
2018-04-27T02:58:42.375Z,13.60
2018-04-27T03:01:11.661Z,13.73
2018-04-27T03:03:39.248Z,18.57
2018-04-27T03:06:06.867Z,15.47
2018-04-27T03:08:34.572Z,16.53
2018-04-27T03:11:02.177Z,14.00
2018-04-27T03:13:30.410Z,31.43
2018-04-27T03:15:58.189Z,23.13
2018-04-27T03:18:25.777Z,16.77
2018-04-27T03:20:53.433Z,14.47
2018-04-27T03:23:21.091Z,14.30
2018-04-27T03:25:48.685Z,14.57
2018-04-27T03:28:16.285Z,14.10
2018-04-27T03:30:43.943Z,13.23
2018-04-27T03:33:12.676Z,14.27
2018-04-27T03:35:40.330Z,14.30
2018-04-27T03:38:07.968Z,13.80
2018-04-27T03:40:35.623Z,13.60
2018-04-27T03:43:03.239Z,15.03
2018-04-27T03:45:30.944Z,14.17
2018-04-27T03:47:58.557Z,13.63
2018-04-27T03:50:26.152Z,14.27
2018-04-27T03:52:53.883Z,15.83
2018-04-27T03:55:21.480Z,15.53
2018-04-27T03:57:49.081Z,14.67
2018-04-27T04:00:28.664Z,14.50
2018-04-27T04:03:08.028Z,14.40
2018-04-27T04:05:35.880Z,17.60
2018-04-27T04:08:03.536Z,13.93
2018-04-27T04:10:31.115Z,14.33
2018-04-27T04:12:58.750Z,14.33
2018-04-27T04:15:26.355Z,16.03
2018-04-27T04:17:53.948Z,15.43
2018-04-27T04:20:21.593Z,14.97
2018-04-27T04:22:49.259Z,15.53
2018-04-27T04:25:16.833Z,18.40
2018-04-27T04:27:44.556Z,16.03
2018-04-27T04:30:12.163Z,15.80
2018-04-27T04:32:39.760Z,20.10
2018-04-27T04:35:07.564Z,25.50
2018-04-27T04:37:35.258Z,20.57
2018-04-27T04:40:02.868Z,21.53
2018-04-27T04:42:30.503Z,17.63
2018-04-27T04:44:58.098Z,24.37
2018-04-27T04:47:25.753Z,20.47
2018-04-27T04:49:53.418Z,16.63
2018-04-27T04:52:21.046Z,23.23
2018-04-27T04:54:48.765Z,20.93
2018-04-27T04:57:16.448Z,19.07
2018-04-27T04:59:44.061Z,25.30
2018-04-27T05:02:11.669Z,22.57
2018-04-27T05:04:39.438Z,25.77
2018-04-27T05:07:07.018Z,19.40
2018-04-27T05:09:34.597Z,19.87
2018-04-27T05:12:02.304Z,26.37
2018-04-27T05:14:30.414Z,27.37
2018-04-27T05:16:58.004Z,21.73
2018-04-27T05:19:25.808Z,24.70
2018-04-27T05:21:53.390Z,24.63
2018-04-27T05:24:21.034Z,26.80
2018-04-27T05:26:49.043Z,24.30
2018-04-27T05:29:16.642Z,29.53
2018-04-27T05:31:44.267Z,29.43
2018-04-27T05:34:11.947Z,24.00
2018-04-27T05:36:39.837Z,26.02
2018-04-27T05:39:07.503Z,23.75
2018-04-27T05:41:35.329Z,23.02
2018-04-27T05:44:03.060Z,25.48
2018-04-27T05:46:30.787Z,25.33
2018-04-27T05:48:58.615Z,30.27
2018-04-27T05:51:26.269Z,34.58
2018-04-27T05:53:53.923Z,26.98
2018-04-27T05:56:21.628Z,31.75
2018-04-27T05:58:49.227Z,31.33
2018-04-27T06:01:16.887Z,28.40
2018-04-27T06:03:56.453Z,29.10
2018-04-27T06:06:24.079Z,28.87
2018-04-27T06:08:51.745Z,21.83
2018-04-27T06:11:19.473Z,24.12
2018-04-27T06:13:47.073Z,18.25
2018-04-27T06:16:14.724Z,19.77
2018-04-27T06:18:42.442Z,19.08
2018-04-27T06:21:10.073Z,43.40
2018-04-27T06:23:37.734Z,28.40
2018-04-27T06:26:06.220Z,21.95
2018-04-27T06:28:49.546Z,19.70
2018-04-27T06:31:17.255Z,22.45
2018-04-27T06:33:44.977Z,18.77
2018-04-27T06:36:12.683Z,20.92
2018-04-27T06:38:40.457Z,23.25
2018-04-27T06:41:08.117Z,18.70
2018-04-27T06:43:35.769Z,25.80
2018-04-27T06:46:03.507Z,16.33
2018-04-27T06:48:31.142Z,21.67
2018-04-27T06:50:58.788Z,16.87
2018-04-27T06:53:26.570Z,22.25
2018-04-27T06:55:54.208Z,13.70
2018-04-27T06:58:21.863Z,14.07
2018-04-27T07:00:49.576Z,13.43
2018-04-27T07:03:17.321Z,15.80
2018-04-27T07:05:45.346Z,16.37
2018-04-27T07:08:13.151Z,13.93
2018-04-27T07:10:40.864Z,16.35
2018-04-27T07:13:08.531Z,17.27
2018-04-27T07:15:36.296Z,14.48
2018-04-27T07:18:03.924Z,13.23
2018-04-27T07:20:31.585Z,12.77
2018-04-27T07:22:59.314Z,14.83
2018-04-27T07:25:26.916Z,14.80
2018-04-27T07:27:54.525Z,16.23
2018-04-27T07:30:22.325Z,15.63
2018-04-27T07:32:50.040Z,21.07
2018-04-27T07:35:17.700Z,15.63
2018-04-27T07:37:45.421Z,14.67
2018-04-27T07:40:13.178Z,15.60
2018-04-27T07:42:40.840Z,18.23
2018-04-27T07:45:08.586Z,19.53
2018-04-27T07:47:36.333Z,14.93
2018-04-27T07:50:04.049Z,16.85
2018-04-27T07:52:31.752Z,21.00
2018-04-27T07:54:59.417Z,18.12
2018-04-27T07:57:27.076Z,16.55
2018-04-27T07:59:54.888Z,13.75
2018-04-27T08:02:22.617Z,14.98
2018-04-27T08:04:50.297Z,14.25
2018-04-27T08:07:18.068Z,16.55
2018-04-27T08:09:45.761Z,15.02
2018-04-27T08:12:13.471Z,16.15
2018-04-27T08:14:41.267Z,17.73
2018-04-27T08:17:09.261Z,16.58
2018-04-27T08:19:36.912Z,13.45
2018-04-27T08:22:04.679Z,15.50
2018-04-27T08:24:32.393Z,19.67
2018-04-27T08:27:00.032Z,15.48
2018-04-27T08:29:27.795Z,15.07
2018-04-27T08:31:55.444Z,21.65
2018-04-27T08:34:23.238Z,49.30
2018-04-27T08:36:50.985Z,15.18
2018-04-27T08:39:18.681Z,13.38
2018-04-27T08:41:46.873Z,16.50
2018-04-27T08:44:14.584Z,12.90
2018-04-27T08:46:42.221Z,13.85
2018-04-27T08:49:09.912Z,18.77
2018-04-27T08:51:37.609Z,9.40
2018-04-27T08:54:05.250Z,7.87
2018-04-27T08:56:32.982Z,26.55
2018-04-27T08:59:00.677Z,10.88
2018-04-27T09:01:28.346Z,11.73
2018-04-27T09:03:55.980Z,13.85
2018-04-27T09:06:23.685Z,13.75
2018-04-27T09:08:51.306Z,8.15
2018-04-27T09:11:18.981Z,8.73
2018-04-27T09:13:46.623Z,10.80
2018-04-27T09:16:14.250Z,6.97
2018-04-27T09:18:41.884Z,8.57
2018-04-27T09:21:09.595Z,7.65
2018-04-27T09:23:37.197Z,8.02
2018-04-27T09:26:04.860Z,9.85
2018-04-27T09:28:32.611Z,12.10
2018-04-27T09:31:00.270Z,8.65
2018-04-27T09:33:27.876Z,10.85
2018-04-27T09:35:55.532Z,9.23
2018-04-27T09:38:23.120Z,9.75
2018-04-27T09:40:50.785Z,11.65
2018-04-27T09:43:18.708Z,9.48
2018-04-27T09:45:46.413Z,7.90
2018-04-27T09:48:14.150Z,9.95
2018-04-27T09:50:41.960Z,15.18
2018-04-27T09:53:09.555Z,9.30
2018-04-27T09:55:37.140Z,10.70
2018-04-27T09:58:04.981Z,11.10
2018-04-27T10:00:32.986Z,28.10
2018-04-27T10:03:00.599Z,14.25
2018-04-27T10:05:28.249Z,13.70
2018-04-27T10:07:55.943Z,8.02
2018-04-27T10:10:25.345Z,8.93
2018-04-27T10:12:53.068Z,7.53
2018-04-27T10:15:20.697Z,11.63
2018-04-27T10:17:48.292Z,9.07
2018-04-27T10:20:15.946Z,16.87
2018-04-27T10:22:43.515Z,12.25
2018-04-27T10:25:11.170Z,7.55
2018-04-27T10:27:38.873Z,9.32
2018-04-27T10:30:06.548Z,9.73
2018-04-27T10:32:34.144Z,15.63
2018-04-27T10:35:01.899Z,7.78
2018-04-27T10:37:29.516Z,9.40
2018-04-27T10:39:57.791Z,14.48
2018-04-27T10:42:25.452Z,12.23
2018-04-27T10:44:53.147Z,11.02
2018-04-27T10:47:20.852Z,7.90
2018-04-27T10:49:48.778Z,19.12
2018-04-27T10:52:16.781Z,10.70
2018-04-27T10:54:44.435Z,12.07
2018-04-27T10:57:12.201Z,11.20
2018-04-27T10:59:39.864Z,12.27
2018-04-27T11:02:07.563Z,17.05
2018-04-27T11:04:35.272Z,10.27
2018-04-27T11:07:02.957Z,12.88
2018-04-27T11:09:30.621Z,13.20
2018-04-27T11:11:58.308Z,9.52
2018-04-27T11:14:26.013Z,15.55
2018-04-27T11:16:54.083Z,9.85
2018-04-27T11:19:22.027Z,10.20
2018-04-27T11:21:49.700Z,17.73
2018-04-27T11:24:17.413Z,17.37
2018-04-27T11:26:45.343Z,14.00
2018-04-27T11:29:13.871Z,13.25
2018-04-27T11:31:41.476Z,19.83
2018-04-27T11:34:09.237Z,12.40
2018-04-27T11:36:36.916Z,13.60
2018-04-27T11:39:04.592Z,11.95
2018-04-27T11:41:32.298Z,10.07
2018-04-27T11:43:59.901Z,11.12
2018-04-27T11:46:28.520Z,15.10
2018-04-27T11:48:56.165Z,14.73
2018-04-27T11:51:23.816Z,11.23
2018-04-27T11:53:51.481Z,9.15
2018-04-27T11:56:19.202Z,10.45
2018-04-27T11:58:49.564Z,11.68
2018-04-27T12:01:17.256Z,9.00
2018-04-27T12:03:45.968Z,9.35
2018-04-27T12:06:13.693Z,12.30
2018-04-27T12:08:41.381Z,11.05
2018-04-27T12:11:09.113Z,13.80
2018-04-27T12:13:36.756Z,11.12
2018-04-27T12:16:04.552Z,10.90
2018-04-27T12:18:32.292Z,11.35
2018-04-27T12:20:59.895Z,10.75
2018-04-27T12:23:27.503Z,9.85
2018-04-27T12:25:55.206Z,12.02
2018-04-27T12:28:22.803Z,10.38
2018-04-27T12:30:50.506Z,12.98
2018-04-27T12:33:18.139Z,15.65
2018-04-27T12:35:45.837Z,12.68
2018-04-27T12:38:13.492Z,9.30
2018-04-27T12:40:41.273Z,14.90
2018-04-27T12:43:09.140Z,17.87
2018-04-27T12:45:36.788Z,16.33
2018-04-27T12:48:04.553Z,14.48
2018-04-27T12:50:32.248Z,12.48
2018-04-27T12:52:59.900Z,11.05
2018-04-27T12:55:27.612Z,9.82
2018-04-27T12:57:55.282Z,12.18
2018-04-27T13:00:23.264Z,15.90
2018-04-27T13:02:50.912Z,15.00
2018-04-27T13:05:18.605Z,10.73
2018-04-27T13:07:46.408Z,11.68
2018-04-27T13:10:14.200Z,13.62
2018-04-27T13:12:41.848Z,15.82
2018-04-27T13:15:09.502Z,15.38
2018-04-27T13:17:37.208Z,11.45
2018-04-27T13:20:05.621Z,10.23
2018-04-27T13:22:33.200Z,15.52
2018-04-27T13:25:01.012Z,24.87
2018-04-27T13:27:28.629Z,14.13
2018-04-27T13:29:56.277Z,8.25
2018-04-27T13:32:23.907Z,11.52
2018-04-27T13:34:51.488Z,13.62
2018-04-27T13:37:19.134Z,15.10
2018-04-27T13:39:46.839Z,10.90
2018-04-27T13:42:14.531Z,15.65
2018-04-27T13:44:42.201Z,18.50
2018-04-27T13:47:09.848Z,17.12
2018-04-27T13:49:37.707Z,13.77
2018-04-27T13:52:05.364Z,12.50
2018-04-27T13:54:33.076Z,13.88
2018-04-27T13:57:00.809Z,38.35
2018-04-27T13:59:28.936Z,18.60
2018-04-27T14:01:56.628Z,17.80
2018-04-27T14:04:24.369Z,12.07
2018-04-27T14:06:52.027Z,17.27
2018-04-27T14:09:19.809Z,13.05
2018-04-27T14:11:47.464Z,12.27
2018-04-27T14:14:15.112Z,14.13
2018-04-27T14:16:42.876Z,11.73
2018-04-27T14:19:10.596Z,16.87
2018-04-27T14:21:38.247Z,10.50
2018-04-27T14:24:06.062Z,13.93
2018-04-27T14:26:33.763Z,12.35
2018-04-27T14:29:01.379Z,21.65
2018-04-27T14:31:29.123Z,18.15
2018-04-27T14:33:56.708Z,16.40
2018-04-27T14:36:24.407Z,14.20
2018-04-27T14:38:52.065Z,11.18
2018-04-27T14:41:19.705Z,12.15
2018-04-27T14:43:47.325Z,14.55
2018-04-27T14:46:15.044Z,16.20
2018-04-27T14:48:42.700Z,13.70
2018-04-27T14:51:10.473Z,16.90
2018-04-27T14:53:38.894Z,14.65
2018-04-27T14:56:06.597Z,13.35
2018-04-27T14:58:34.475Z,11.95
2018-04-27T15:01:02.189Z,12.48
2018-04-27T15:03:29.934Z,13.13
2018-04-27T15:05:57.550Z,15.70
2018-04-27T15:08:25.214Z,14.25
2018-04-27T15:10:52.872Z,15.60
2018-04-27T15:13:20.522Z,12.75
2018-04-27T15:15:48.229Z,16.67
2018-04-27T15:18:15.863Z,20.12
2018-04-27T15:20:43.489Z,15.15
2018-04-27T15:23:11.292Z,15.43
2018-04-27T15:25:39.014Z,11.40
2018-04-27T15:28:06.667Z,10.93
2018-04-27T15:30:34.412Z,14.40
2018-04-27T15:33:02.098Z,17.95
2018-04-27T15:35:29.725Z,14.80
2018-04-27T15:37:57.428Z,19.00
2018-04-27T15:40:25.077Z,11.65
2018-04-27T15:42:52.721Z,15.95
2018-04-27T15:45:20.435Z,16.12
2018-04-27T15:47:48.075Z,12.00
2018-04-27T15:50:15.754Z,15.70
2018-04-27T15:52:44.116Z,14.00
2018-04-27T15:55:11.761Z,15.15
2018-04-27T15:57:39.353Z,13.55
2018-04-27T16:00:07.067Z,13.57
2018-04-27T16:02:34.732Z,16.25
2018-04-27T16:05:03.456Z,12.43
2018-04-27T16:07:31.161Z,17.93
2018-04-27T16:09:58.851Z,16.12
2018-04-27T16:12:26.495Z,13.82
2018-04-27T16:14:54.387Z,14.85
2018-04-27T16:17:22.059Z,54.38
2018-04-27T16:19:50.299Z,54.35
2018-04-27T16:22:18.113Z,15.27
2018-04-27T16:24:45.856Z,15.90
2018-04-27T16:27:13.522Z,212.60
2018-04-27T16:29:41.872Z,377.17
2018-04-27T16:32:09.600Z,145.87
2018-04-27T16:34:37.289Z,23.45
2018-04-27T16:37:05.056Z,22.97
2018-04-27T16:39:32.717Z,16.23
2018-04-27T16:42:00.427Z,29.27
2018-04-27T16:44:28.191Z,57.13
2018-04-27T16:46:55.853Z,29.50
2018-04-27T17:03:45.887Z,20.63
2018-04-27T17:06:13.537Z,28.43
2018-04-27T17:08:41.267Z,17.57
2018-04-27T17:11:08.964Z,23.07
2018-04-27T17:13:36.717Z,20.10
2018-04-27T17:16:04.335Z,23.70
2018-04-27T17:18:32.115Z,13.53
2018-04-27T17:20:59.773Z,17.03
2018-04-27T17:23:28.362Z,16.60
2018-04-27T17:25:56.216Z,15.43
2018-04-27T17:28:24.636Z,19.30
2018-04-27T17:30:52.291Z,17.53
2018-04-27T17:33:19.983Z,13.27
2018-04-27T17:35:47.687Z,13.80
2018-04-27T17:38:15.372Z,16.27
2018-04-27T17:40:43.141Z,13.93
2018-04-27T17:43:10.768Z,17.00
2018-04-27T17:45:38.563Z,13.20
2018-04-27T17:48:06.309Z,12.37
2018-04-27T17:50:33.923Z,16.53
2018-04-27T17:53:01.633Z,17.33
2018-04-27T17:55:29.503Z,13.07
2018-04-27T17:57:57.107Z,14.43
2018-04-27T18:00:24.825Z,19.93
2018-04-27T18:02:52.515Z,13.17
2018-04-27T18:05:20.196Z,13.13
2018-04-27T18:07:47.839Z,17.03
2018-04-27T18:10:15.518Z,14.77
2018-04-27T18:12:43.246Z,12.43
2018-04-27T18:15:10.957Z,14.07
2018-04-27T18:17:38.660Z,13.90
2018-04-27T18:20:06.345Z,14.20
2018-04-27T18:22:34.129Z,14.97
2018-04-27T18:25:01.879Z,15.43
2018-04-27T18:27:29.644Z,17.37
2018-04-27T18:29:57.309Z,15.07
2018-04-27T18:32:24.942Z,14.10
2018-04-27T18:34:52.555Z,15.20
2018-04-27T18:37:20.332Z,13.90
2018-04-27T18:39:48.105Z,12.57
2018-04-27T18:42:15.821Z,13.30
2018-04-27T18:44:43.533Z,16.27
2018-04-27T18:47:11.245Z,15.43
2018-04-27T18:49:38.969Z,15.37
2018-04-27T18:52:06.640Z,15.97
2018-04-27T18:54:34.493Z,12.77
2018-04-27T18:57:02.316Z,13.63
2018-04-27T18:59:30.041Z,12.50
2018-04-27T19:01:57.809Z,16.47
2018-04-27T19:04:25.520Z,16.00
2018-04-27T19:06:53.267Z,14.20
2018-04-27T19:09:21.676Z,14.70
2018-04-27T19:11:49.395Z,14.80
2018-04-27T19:14:17.196Z,15.27
2018-04-27T19:16:44.848Z,14.63
2018-04-27T19:19:12.508Z,14.33
2018-04-27T19:21:40.156Z,15.50
2018-04-27T19:24:07.945Z,14.20
2018-04-27T19:26:35.692Z,14.80
2018-04-27T19:29:03.362Z,14.33
2018-04-27T19:31:31.063Z,13.47
2018-04-27T19:33:58.725Z,16.80
2018-04-27T19:36:26.405Z,17.07
2018-04-27T19:38:54.177Z,17.93
2018-04-27T19:41:21.899Z,19.83
2018-04-27T19:43:49.605Z,15.87
2018-04-27T19:46:17.393Z,15.00
2018-04-27T19:48:45.761Z,17.50
2018-04-27T19:51:13.431Z,16.50
2018-04-27T19:53:41.196Z,16.70
2018-04-27T19:56:08.874Z,15.23
2018-04-27T19:58:36.685Z,16.83
2018-04-27T20:01:04.408Z,16.30
2018-04-27T20:03:32.120Z,17.07
2018-04-27T20:05:59.772Z,17.20
2018-04-27T20:08:28.037Z,23.67
2018-04-27T20:10:56.540Z,16.70
2018-04-27T20:13:24.139Z,15.37
2018-04-27T20:16:08.713Z,19.47
2018-04-27T20:18:36.444Z,17.50
2018-04-27T20:21:04.190Z,17.37
2018-04-27T20:23:41.208Z,17.20
2018-04-27T20:26:08.851Z,16.30
2018-04-27T20:28:40.545Z,18.87
2018-04-27T20:31:08.262Z,17.33
2018-04-27T20:33:36.020Z,15.23
2018-04-27T20:36:03.687Z,14.47
2018-04-27T20:38:32.412Z,14.83
2018-04-27T20:41:18.733Z,15.57
2018-04-27T20:43:48.377Z,16.13
2018-04-27T20:46:18.749Z,13.37
2018-04-27T20:48:46.467Z,13.67
2018-04-27T20:51:14.692Z,14.23
2018-04-27T20:53:55.201Z,18.50
2018-04-27T20:56:37.840Z,15.50
2018-04-27T20:59:05.966Z,13.10
2018-04-27T21:01:35.659Z,14.60
2018-04-27T21:04:03.448Z,14.60
2018-04-27T21:06:31.180Z,12.87
2018-04-27T21:08:58.892Z,15.00
2018-04-27T21:11:26.730Z,13.07
2018-04-27T21:13:55.768Z,11.87
2018-04-27T21:16:23.420Z,13.27
2018-04-27T21:18:51.119Z,14.37
2018-04-27T21:21:18.756Z,13.53
2018-04-27T21:23:46.403Z,10.77
2018-04-27T21:26:23.787Z,12.17
2018-04-27T21:28:51.424Z,12.30
2018-04-27T21:31:19.129Z,13.00
2018-04-27T21:33:51.750Z,14.87
2018-04-27T21:36:19.408Z,11.10
2018-04-27T21:38:47.856Z,11.57
2018-04-27T21:41:21.284Z,12.77
2018-04-27T21:43:48.984Z,13.60
2018-04-27T21:46:32.560Z,12.47
2018-04-27T21:49:05.049Z,11.33
2018-04-27T21:51:34.661Z,10.73
2018-04-27T21:54:10.952Z,14.90
2018-04-27T21:56:56.431Z,10.50
2018-04-27T21:59:34.102Z,12.43
2018-04-27T22:02:01.912Z,12.73
2018-04-27T22:04:29.561Z,10.67
2018-04-27T22:06:57.299Z,15.73
2018-04-27T22:09:27.827Z,11.43
2018-04-27T22:11:55.471Z,13.20
2018-04-27T22:14:31.049Z,10.63
2018-04-27T22:17:17.295Z,12.23
2018-04-27T22:19:45.006Z,14.87
2018-04-27T22:22:13.360Z,13.93
2018-04-27T22:25:00.617Z,13.23
2018-04-27T22:27:28.279Z,12.40
2018-04-27T22:30:07.406Z,12.03
2018-04-27T22:32:36.774Z,12.60
2018-04-27T22:35:09.143Z,13.33
2018-04-27T22:37:38.624Z,15.10
2018-04-27T22:40:12.859Z,12.17
2018-04-27T22:43:01.287Z,12.97
2018-04-27T22:45:36.761Z,11.97
2018-04-27T22:48:29.955Z,11.20
2018-04-27T22:50:58.425Z,14.00
2018-04-27T22:53:31.439Z,15.00
2018-04-27T22:55:59.124Z,12.47
2018-04-27T22:58:26.788Z,12.27
2018-04-27T23:01:02.341Z,15.10
2018-04-27T23:03:31.741Z,13.27
2018-04-27T23:05:59.442Z,11.03
2018-04-27T23:08:28.075Z,11.87
2018-04-27T23:11:01.674Z,13.03
2018-04-27T23:13:33.311Z,12.30
2018-04-27T23:16:00.956Z,9.93
2018-04-27T23:18:33.570Z,12.10
2018-04-27T23:21:01.834Z,13.20
2018-04-27T23:23:29.477Z,12.67
2018-04-27T23:25:57.265Z,10.80
2018-04-27T23:28:26.276Z,10.60
2018-04-27T23:30:53.986Z,10.17
2018-04-27T23:33:21.758Z,9.50
2018-04-27T23:35:50.915Z,12.13
2018-04-27T23:38:19.156Z,9.63
2018-04-27T23:40:47.696Z,11.37
2018-04-27T23:43:15.342Z,11.30
2018-04-27T23:45:43.749Z,8.90
2018-04-27T23:48:12.378Z,10.07
2018-04-27T23:50:40.084Z,10.90
2018-04-27T23:53:07.733Z,13.30
2018-04-27T23:55:37.323Z,11.97
2018-04-27T23:58:05.033Z,10.07
